Time;durP1;ratioP1;P1;durP2;ratioP2;P2;SDS_P1;SDS_P2;PMS_P1;PMS_P2;Temp;Humidity;BMP_temperature;BMP_pressure;BME280_temperature;BME280_humidity;BME280_pressure;Samples;Min_cycle;Max_cycle;Signal;HPM_P1;HPM_P2
2023/03/14 00:01:17;;;;;;;17.35;3.88;;;;;;;10.15;75.21;99036.28;6097403;19;20086;-79
2023/03/14 00:03:27;;;;;;;20.88;4.72;;;;;;;10.20;75.00;99028.94;6098469;19;20014;-76
2023/03/14 00:05:36;;;;;;;15.82;4.97;;;;;;;10.20;75.40;99028.94;6102717;19;20015;-79
2023/03/14 00:07:54;;;;;;;19.70;3.95;;;;;;;10.15;75.56;99038.91;6100522;19;21157;-80
2023/03/14 00:09:59;;;;;;;16.88;4.15;;;;;;;10.12;76.22;99032.06;6077362;19;20019;-79
2023/03/14 00:12:14;;;;;;;12.85;3.42;;;;;;;10.07;75.87;99034.16;6097343;19;20401;-78
2023/03/14 00:14:23;;;;;;;15.50;3.08;;;;;;;10.04;75.80;99027.34;6100154;19;20042;-80
2023/03/14 00:16:33;;;;;;;17.65;3.58;;;;;;;9.99;76.60;99037.31;6099386;19;20501;-79
2023/03/14 00:18:41;;;;;;;12.98;3.70;;;;;;;9.99;76.31;99037.31;6098506;19;20018;-80
2023/03/14 00:20:48;;;;;;;19.92;3.85;;;;;;;9.96;76.75;99045.38;6099657;19;20011;-79
2023/03/14 00:23:02;;;;;;;13.43;4.07;;;;;;;9.88;78.09;99032.78;6099644;19;20027;-79
2023/03/14 00:25:16;;;;;;;25.08;3.80;;;;;;;9.84;78.60;99044.41;6099800;19;20043;-79
2023/03/14 00:27:24;;;;;;;19.58;4.05;;;;;;;9.74;79.28;99029.38;6098375;19;20526;-80
2023/03/14 00:29:29;;;;;;;19.45;3.80;;;;;;;9.74;79.35;99042.50;6095262;19;20021;-79
2023/03/14 00:31:35;;;;;;;18.85;3.63;;;;;;;9.64;80.01;99037.88;6101603;19;20023;-80
2023/03/14 00:33:42;;;;;;;12.60;3.25;;;;;;;9.64;80.21;99048.34;6077616;19;20018;-79
2023/03/14 00:35:58;;;;;;;17.85;4.65;;;;;;;9.63;80.32;99038.78;6098868;19;20528;-79
2023/03/14 00:38:14;;;;;;;19.08;3.50;;;;;;;9.66;80.42;99051.72;6097820;19;20047;-80
2023/03/14 00:40:19;;;;;;;18.37;3.97;;;;;;;9.63;80.63;99040.56;6096787;19;20014;-79
2023/03/14 00:42:38;;;;;;;21.00;4.57;;;;;;;9.64;80.70;99037.03;6099852;19;21000;-79
2023/03/14 00:44:46;;;;;;;18.25;4.75;;;;;;;9.60;80.74;99044.22;6100501;19;20006;-78
2023/03/14 00:46:52;;;;;;;23.48;5.00;;;;;;;9.59;81.00;99036.50;6097274;19;20741;-79
2023/03/14 00:48:57;;;;;;;19.00;4.45;;;;;;;9.60;81.07;99054.72;6100659;19;20010;-79
2023/03/14 00:51:05;;;;;;;25.15;4.95;;;;;;;9.52;81.29;99040.44;6100290;19;20731;-80
2023/03/14 00:53:11;;;;;;;11.13;4.35;;;;;;;9.57;81.26;99051.47;6100383;19;20077;-80
2023/03/14 00:55:17;;;;;;;18.42;3.97;;;;;;;9.56;81.62;99063.75;6081435;19;20051;-80
2023/03/14 00:57:37;;;;;;;17.05;4.53;;;;;;;9.53;81.50;99061.31;6097754;19;20243;-80
2023/03/14 00:59:45;;;;;;;15.82;4.13;;;;;;;9.52;81.81;99059.63;6101864;19;20323;-79
2023/03/14 01:01:55;;;;;;;19.92;4.18;;;;;;;9.48;82.11;99070.41;6102548;19;20510;-81
2023/03/14 01:04:16;;;;;;;28.70;4.72;;;;;;;9.48;82.29;99057.28;6103510;19;20463;-80
2023/03/14 01:06:25;;;;;;;14.63;3.88;;;;;;;9.47;82.39;99060.88;6103336;19;20038;-79
2023/03/14 01:08:30;;;;;;;13.38;3.72;;;;;;;9.43;82.77;99049.75;6097834;19;20232;-80
2023/03/14 01:10:35;;;;;;;15.68;3.10;;;;;;;9.42;82.58;99050.66;6075011;19;20130;-79
2023/03/14 01:12:53;;;;;;;13.32;3.15;;;;;;;9.38;83.00;99047.41;6097507;19;20006;-81
2023/03/14 01:14:58;;;;;;;19.70;5.50;;;;;;;9.37;82.96;99018.66;6099884;19;20010;-80
2023/03/14 01:17:04;;;;;;;22.08;4.60;;;;;;;9.34;83.08;99029.34;6099399;19;20907;-81
2023/03/14 01:19:12;;;;;;;12.30;3.10;;;;;;;9.36;83.09;99030.94;6076996;19;20081;-78
2023/03/14 01:21:22;;;;;;;14.15;4.10;;;;;;;9.39;82.90;99029.91;6098305;19;20093;-79
2023/03/14 01:23:29;;;;;;;18.92;3.47;;;;;;;9.35;82.82;99036.31;6095551;19;20018;-78
2023/03/14 01:25:35;;;;;;;15.98;3.15;;;;;;;9.33;82.83;99033.75;6099099;19;20051;-78
2023/03/14 01:27:44;;;;;;;15.30;4.22;;;;;;;9.40;82.33;99044.69;6097848;19;20018;-78
2023/03/14 01:29:50;;;;;;;19.55;4.78;;;;;;;9.35;82.87;99052.88;6079038;19;20690;-80
2023/03/14 01:31:55;;;;;;;13.85;3.42;;;;;;;9.35;82.62;99044.16;6098757;19;20018;-80
2023/03/14 01:34:03;;;;;;;15.35;4.55;;;;;;;9.41;82.52;99041.13;6098495;19;20339;-81
2023/03/14 01:36:11;;;;;;;19.33;4.18;;;;;;;9.42;82.21;99051.50;6101124;19;20661;-77
2023/03/14 01:38:17;;;;;;;23.45;4.63;;;;;;;9.46;81.93;99039.06;6100236;19;20019;-79
2023/03/14 01:40:24;;;;;;;13.32;3.22;;;;;;;9.47;82.09;99055.63;6098213;19;20035;-81
2023/03/14 01:42:32;;;;;;;14.88;3.50;;;;;;;9.43;82.29;99042.72;6099854;19;20010;-80
2023/03/14 01:44:57;;;;;;;13.15;3.97;;;;;;;9.48;81.94;99041.56;6101784;19;20499;-80
2023/03/14 01:47:04;;;;;;;17.75;4.15;;;;;;;9.47;81.89;99043.34;6107425;19;20018;-80
2023/03/14 01:49:19;;;;;;;11.35;3.67;;;;;;;9.53;81.42;99044.72;6085627;19;20044;-80
2023/03/14 01:51:31;;;;;;;12.35;3.05;;;;;;;9.53;81.40;99035.09;6081908;19;20010;-80
2023/03/14 01:53:40;;;;;;;22.35;4.03;;;;;;;9.54;81.48;99028.06;6107358;19;20014;-80
2023/03/14 01:55:46;;;;;;;17.20;3.30;;;;;;;9.56;81.08;99028.81;6108800;19;20494;-80
2023/03/14 01:57:58;;;;;;;14.02;3.10;;;;;;;9.55;80.90;99017.47;6104560;19;20066;-80
2023/03/14 02:00:14;;;;;;;15.90;4.05;;;;;;;9.60;81.04;99015.38;6109216;19;20372;-78
2023/03/14 02:02:19;;;;;;;10.82;3.55;;;;;;;9.54;81.15;99020.22;6106214;19;20014;-79
2023/03/14 02:04:31;;;;;;;14.55;3.10;;;;;;;9.52;80.97;99016.84;6089784;19;20461;-78
2023/03/14 02:06:49;;;;;;;8.88;2.90;;;;;;;9.51;81.24;99010.75;6112281;19;20367;-80
2023/03/14 02:08:56;;;;;;;11.80;3.20;;;;;;;9.53;81.00;99008.03;6108843;19;20023;-78
2023/03/14 02:11:01;;;;;;;17.85;3.35;;;;;;;9.53;80.85;99006.25;6106127;19;20090;-79
2023/03/14 02:13:16;;;;;;;12.82;2.78;;;;;;;9.57;80.59;98997.25;6100851;19;20031;-79
2023/03/14 02:15:24;;;;;;;12.43;2.70;;;;;;;9.57;80.53;99010.34;6074798;19;20073;-80
2023/03/14 02:17:34;;;;;;;12.98;3.47;;;;;;;9.53;80.75;99003.66;6050295;19;20552;-78
2023/03/14 02:19:53;;;;;;;12.20;2.70;;;;;;;9.55;80.72;99001.75;6092282;19;20014;-79
2023/03/14 02:22:08;;;;;;;12.60;3.33;;;;;;;9.52;80.58;98995.88;6094849;19;20007;-79
2023/03/14 02:24:27;;;;;;;15.48;3.20;;;;;;;9.49;80.63;98994.28;6095146;19;20101;-81
2023/03/14 02:26:46;;;;;;;11.18;3.30;;;;;;;9.53;80.54;99008.88;6097271;19;20101;-81
2023/03/14 02:28:56;;;;;;;15.68;3.17;;;;;;;9.49;80.77;99003.94;6095578;19;20086;-79
2023/03/14 02:31:02;;;;;;;13.00;3.10;;;;;;;9.50;80.99;99001.19;6096063;19;20106;-78
2023/03/14 02:33:12;;;;;;;19.38;5.03;;;;;;;9.45;81.30;99003.28;6076446;19;20019;-78
2023/03/14 02:35:23;;;;;;;6.68;2.35;;;;;;;9.42;81.44;99004.31;6094293;19;20027;-79
2023/03/14 02:37:33;;;;;;;13.40;2.97;;;;;;;9.42;81.58;99004.31;6091739;19;20043;-78
2023/03/14 02:39:48;;;;;;;9.63;2.60;;;;;;;9.39;81.92;99007.13;6095315;19;20010;-79
2023/03/14 02:41:54;;;;;;;9.98;2.95;;;;;;;9.42;82.41;99001.69;6094479;19;20034;-79
2023/03/14 02:44:01;;;;;;;16.67;3.45;;;;;;;9.35;83.10;99003.06;6094601;19;20605;-79
2023/03/14 02:46:08;;;;;;;10.68;2.50;;;;;;;9.33;83.46;99001.47;6098742;19;20013;-79
2023/03/14 02:48:23;;;;;;;19.10;3.45;;;;;;;9.32;83.27;98984.03;6095599;19;20013;-78
2023/03/14 02:50:33;;;;;;;9.77;3.03;;;;;;;9.28;83.42;98974.72;6096723;19;20530;-78
2023/03/14 02:52:42;;;;;;;12.88;3.45;;;;;;;9.27;83.72;98987.00;6095698;19;20396;-79
2023/03/14 02:54:49;;;;;;;8.52;2.78;;;;;;;9.28;83.34;98978.19;6074369;19;20261;-79
2023/03/14 02:56:58;;;;;;;16.98;3.30;;;;;;;9.23;83.51;98978.47;6097131;19;20089;-79
2023/03/14 02:59:11;;;;;;;13.15;3.40;;;;;;;9.28;83.55;98987.81;6096350;19;20007;-79
2023/03/14 03:01:16;;;;;;;17.13;3.33;;;;;;;9.33;82.94;98991.81;6096689;19;20035;-79
2023/03/14 03:03:24;;;;;;;13.55;2.90;;;;;;;9.35;82.90;98976.00;6094908;19;20558;-80
2023/03/14 03:05:26;;;;;;;16.80;3.35;;;;;;;9.33;83.00;98970.03;6097839;19;20491;-80
2023/03/14 03:07:33;;;;;;;11.68;2.83;;;;;;;9.32;82.91;98957.84;6097177;19;20130;-80
2023/03/14 03:09:38;;;;;;;15.73;3.40;;;;;;;9.32;83.08;98955.22;6097680;19;20235;-80
2023/03/14 03:11:44;;;;;;;15.32;3.15;;;;;;;9.27;83.07;98981.75;6093889;19;20106;-79
2023/03/14 03:13:52;;;;;;;12.77;3.92;;;;;;;9.26;83.06;98963.50;6095179;19;20022;-80
2023/03/14 03:16:00;;;;;;;14.40;3.22;;;;;;;9.32;82.44;98974.44;6097685;19;20011;-80
2023/03/14 03:18:05;;;;;;;16.35;4.18;;;;;;;9.32;82.75;98963.94;6097532;19;20035;-80
2023/03/14 03:20:13;;;;;;;11.82;3.15;;;;;;;9.32;82.66;98968.31;6076263;19;20014;-80
2023/03/14 03:22:33;;;;;;;13.18;3.78;;;;;;;9.34;82.31;98956.78;6073683;19;20021;-79
2023/03/14 03:24:42;;;;;;;;;;;;;;;9.43;82.21;98971.09;6079055;19;20006;-79
2023/03/14 03:26:47;;;;;;;12.93;3.50;;;;;;;9.35;82.64;98965.53;6080925;19;20431;-79
2023/03/14 03:28:56;;;;;;;9.75;3.05;;;;;;;9.35;82.59;98971.59;6099244;19;20082;-80
2023/03/14 03:31:09;;;;;;;9.30;2.55;;;;;;;9.37;82.09;98961.00;6104898;19;20261;-78
2023/03/14 03:33:15;;;;;;;17.00;3.45;;;;;;;9.37;82.21;98961.88;6081364;19;20701;-79
2023/03/14 03:35:23;;;;;;;12.73;3.10;;;;;;;9.37;82.51;98982.84;6104216;19;20050;-80
2023/03/14 03:37:29;;;;;;;15.18;3.15;;;;;;;9.38;82.24;98962.69;6081405;19;20237;-79
2023/03/14 03:39:34;;;;;;;15.05;3.38;;;;;;;9.37;82.50;98961.00;6096809;19;20043;-79
2023/03/14 03:41:40;;;;;;;11.55;3.08;;;;;;;9.40;82.33;98961.66;6103628;19;20019;-80
2023/03/14 03:43:48;;;;;;;11.52;3.42;;;;;;;9.43;82.15;98960.63;6098206;19;20014;-78
2023/03/14 03:46:09;;;;;;;9.88;2.97;;;;;;;9.39;82.16;98954.72;6098230;19;20381;-79
2023/03/14 03:48:14;;;;;;;10.88;3.10;;;;;;;9.43;82.08;98956.22;6102469;19;20010;-80
2023/03/14 03:50:24;;;;;;;12.05;3.38;;;;;;;9.44;82.27;98962.28;6081660;19;20013;-79
2023/03/14 03:52:30;;;;;;;8.80;2.55;;;;;;;9.45;82.14;98961.31;6097540;19;20018;-79
2023/03/14 03:54:39;;;;;;;11.60;3.05;;;;;;;9.42;82.13;98958.91;6100389;19;20027;-79
2023/03/14 03:56:46;;;;;;;9.27;2.90;;;;;;;9.45;82.17;98961.31;6102709;19;20019;-79
2023/03/14 03:58:55;;;;;;;9.35;3.03;;;;;;;9.44;81.89;98957.88;6080473;19;20007;-78
2023/03/14 04:01:03;;;;;;;17.20;3.95;;;;;;;9.48;81.96;98957.66;6101691;19;20031;-79
2023/03/14 04:03:14;;;;;;;12.35;3.35;;;;;;;9.50;81.95;98964.50;6102913;19;20014;-79
2023/03/14 04:05:23;;;;;;;9.27;4.07;;;;;;;9.46;82.11;98960.41;6104816;19;20420;-78
2023/03/14 04:07:30;;;;;;;10.95;3.15;;;;;;;9.47;81.89;98962.06;6077557;19;20082;-79
2023/03/14 04:09:35;;;;;;;12.40;3.35;;;;;;;9.46;82.31;98970.91;6098983;19;20014;-80
2023/03/14 04:11:41;;;;;;;12.65;2.65;;;;;;;9.43;83.39;98971.09;6101368;19;20019;-78
2023/03/14 04:13:46;;;;;;;9.40;2.63;;;;;;;9.36;84.26;98956.72;6102146;19;20094;-80
2023/03/14 04:15:54;;;;;;;11.85;3.13;;;;;;;9.23;85.78;98965.34;6100926;19;20013;-81
2023/03/14 04:18:00;;;;;;;9.25;2.88;;;;;;;9.16;86.58;98969.34;6102107;19;20010;-81
2023/03/14 04:20:11;;;;;;;16.60;3.20;;;;;;;9.13;87.01;98961.66;6101889;19;20011;-81
2023/03/14 04:22:16;;;;;;;9.90;3.00;;;;;;;9.05;87.85;98965.72;6056305;19;20696;-80
2023/03/14 04:24:21;;;;;;;15.55;3.65;;;;;;;9.04;88.11;98974.53;6098991;19;20039;-78
2023/03/14 04:26:29;;;;;;;6.85;2.15;;;;;;;9.02;88.03;98967.59;6099296;19;20018;-78
2023/03/14 04:28:35;;;;;;;11.00;3.05;;;;;;;9.02;88.34;98958.88;6098467;19;20017;-78
2023/03/14 04:30:45;;;;;;;8.73;2.75;;;;;;;8.94;88.47;98959.38;6077066;19;20027;-78
2023/03/14 04:32:51;;;;;;;8.32;3.13;;;;;;;8.91;89.07;98963.97;6102802;19;20015;-77
2023/03/14 04:34:56;;;;;;;14.80;3.15;;;;;;;8.94;89.23;98959.38;6077491;19;20667;-77
2023/03/14 04:37:05;;;;;;;6.57;2.92;;;;;;;8.91;89.32;98959.59;6099042;19;20720;-76
2023/03/14 04:39:15;;;;;;;13.98;2.95;;;;;;;8.96;89.12;98954.06;6102920;19;20505;-77
2023/03/14 04:41:20;;;;;;;9.20;2.38;;;;;;;8.91;89.27;98951.72;6095768;19;20002;-76
2023/03/14 04:43:38;;;;;;;10.35;2.92;;;;;;;8.91;89.67;98958.75;6045530;19;20660;-75
2023/03/14 04:45:57;;;;;;;10.23;3.50;;;;;;;8.88;90.07;98954.53;6001229;19;20018;-74
2023/03/14 04:48:38;;;;;;;8.15;2.97;;;;;;;8.88;90.16;98964.19;6098066;19;20017;-74
2023/03/14 04:51:18;;;;;;;9.60;3.00;;;;;;;8.90;89.95;98957.91;6048048;19;20054;-74
2023/03/14 05:00:36;;;;;;;;;;;;;;;;;;;;;
2023/03/14 05:31:02;;;;;;;9.63;3.80;;;;;;;8.55;94.27;99002.00;6017613;19;20315;-74
2023/03/14 05:47:17;;;;;;;;;;;;;;;;;;;;;
2023/03/14 09:19:50;;;;;;;;;;;;;;;;;;;;;
2023/03/14 09:22:35;;;;;;;15.50;2.63;;;;;;;6.00;83.61;99842.03;6059690;19;20006;-78
2023/03/14 09:25:10;;;;;;;14.00;2.20;;;;;;;5.92;81.96;99852.72;6000860;19;20662;-78
2023/03/14 09:27:41;;;;;;;12.73;2.38;;;;;;;6.00;81.75;99868.09;6042224;19;20282;-76
2023/03/14 09:33:01;;;;;;;;;;;;;;;;;;;;;
2023/03/14 09:41:49;;;;;;;11.55;2.70;;;;;;;5.27;85.03;99935.78;6051626;19;20078;-77
2023/03/14 09:51:49;;;;;;;9.10;2.47;;;;;;;5.05;89.10;99963.41;5990211;19;20070;-76
2023/03/14 09:54:51;;;;;;;14.75;3.15;;;;;;;5.52;88.60;99976.63;5933833;19;20041;-76
2023/03/14 09:57:11;;;;;;;13.65;3.80;;;;;;;5.62;86.83;99974.59;6048753;19;20040;-77
2023/03/14 09:59:48;;;;;;;14.05;3.60;;;;;;;5.60;85.81;99981.59;6076294;19;20110;-77
2023/03/14 10:02:31;;;;;;;10.48;2.80;;;;;;;5.70;83.36;99990.81;6075994;19;20087;-78
2023/03/14 10:17:46;;;;;;;10.88;2.80;;;;;;;5.60;82.96;100046.75;6056725;19;20034;-76
2023/03/14 10:20:11;;;;;;;14.65;3.55;;;;;;;5.65;82.74;100066.53;6017788;19;20561;-77
2023/03/14 10:22:49;;;;;;;18.73;2.92;;;;;;;5.72;80.84;100062.84;6056680;19;20705;-77
2023/03/14 10:24:56;;;;;;;20.67;3.45;;;;;;;5.89;81.79;100072.69;6072439;19;20011;-76
2023/03/14 10:27:28;;;;;;;17.38;3.17;;;;;;;5.72;79.35;100090.69;6067963;19;20018;-76
2023/03/14 10:30:09;;;;;;;10.90;2.60;;;;;;;5.69;79.56;100104.66;6046144;19;20014;-76
2023/03/14 10:32:36;;;;;;;15.35;3.05;;;;;;;5.82;80.69;100135.53;6089480;19;20010;-76
2023/03/14 10:35:29;;;;;;;17.90;3.58;;;;;;;5.83;76.89;100121.59;6077218;19;20014;-77
2023/03/14 10:38:16;;;;;;;17.73;3.60;;;;;;;6.07;76.57;100133.88;6020893;19;20016;-76
2023/03/14 10:40:52;;;;;;;18.35;3.10;;;;;;;6.23;75.09;100142.03;6006229;19;20014;-76
2023/03/14 10:47:14;;;;;;;;;;;;;;;;;;;;;
2023/03/14 10:50:02;;;;;;;12.68;3.20;;;;;;;6.42;73.13;100170.94;6004258;19;20625;-76
2023/03/14 10:52:34;;;;;;;19.30;4.80;;;;;;;6.20;69.90;100189.09;5932727;19;20040;-77
2023/03/14 10:55:15;;;;;;;19.85;4.30;;;;;;;6.12;70.15;100191.94;6074745;19;20051;-78
2023/03/14 10:57:26;;;;;;;15.00;3.55;;;;;;;6.22;70.70;100196.88;6077077;19;20030;-77
2023/03/14 10:59:38;;;;;;;11.75;2.78;;;;;;;6.30;72.84;100208.75;6095268;19;20032;-77
2023/03/14 11:01:58;;;;;;;13.32;3.00;;;;;;;6.37;71.40;100210.28;6094119;19;20558;-77
2023/03/14 11:04:31;;;;;;;17.15;3.97;;;;;;;6.57;71.92;100221.78;6074647;19;20690;-77
2023/03/14 11:07:00;;;;;;;6.95;3.17;;;;;;;6.73;69.62;100222.13;6077028;19;20011;-77
2023/03/14 11:09:49;;;;;;;15.55;4.18;;;;;;;6.87;66.20;100232.94;6055720;19;20093;-77
2023/03/14 11:12:14;;;;;;;16.88;3.20;;;;;;;6.91;68.09;100250.22;5968978;19;20095;-77
2023/03/14 11:14:36;;;;;;;13.30;3.50;;;;;;;6.96;66.80;100247.44;6073126;19;20011;-77
2023/03/14 11:16:55;;;;;;;12.15;2.60;;;;;;;7.33;69.15;100261.81;6106768;19;20014;-78
2023/03/14 11:19:22;;;;;;;12.20;2.13;;;;;;;7.21;66.21;100281.38;6110077;19;20020;-78
2023/03/14 11:21:38;;;;;;;6.82;2.35;;;;;;;7.25;64.93;100278.59;6103448;19;20011;-78
2023/03/14 11:23:57;;;;;;;6.95;2.28;;;;;;;7.13;63.33;100302.56;6092664;19;20649;-78
2023/03/14 11:26:14;;;;;;;12.48;3.15;;;;;;;7.34;62.85;100303.56;6113697;19;20023;-77
2023/03/14 11:28:25;;;;;;;10.57;2.15;;;;;;;7.19;59.60;100307.59;6115529;19;20003;-78
2023/03/14 11:30:38;;;;;;;11.48;2.78;;;;;;;7.26;60.47;100310.81;6117338;19;20540;-79
2023/03/14 11:32:48;;;;;;;13.48;2.97;;;;;;;7.58;61.40;100317.53;6116513;19;20027;-80
2023/03/14 11:34:55;;;;;;;15.07;2.70;;;;;;;7.79;61.47;100328.94;6117065;19;20014;-80
2023/03/14 11:37:09;;;;;;;8.90;2.83;;;;;;;7.33;59.22;100330.59;6114341;19;20158;-79
2023/03/14 11:39:18;;;;;;;12.07;2.70;;;;;;;7.31;56.50;100350.72;6109194;19;20014;-79
2023/03/14 11:41:29;;;;;;;6.80;2.20;;;;;;;7.37;55.66;100350.53;6107953;19;20027;-79
2023/03/14 11:43:42;;;;;;;9.52;2.97;;;;;;;7.19;53.13;100359.00;6101575;19;20351;-80
2023/03/14 11:45:49;;;;;;;12.15;3.70;;;;;;;7.26;55.64;100371.78;6106837;19;20038;-80
2023/03/14 11:48:02;;;;;;;15.93;3.28;;;;;;;7.31;55.35;100361.16;6108112;19;20015;-80
2023/03/14 11:50:20;;;;;;;9.15;2.40;;;;;;;7.38;57.62;100380.13;6083113;19;20034;-80
2023/03/14 11:52:34;;;;;;;12.00;3.33;;;;;;;7.37;56.09;100379.28;6103455;19;20820;-80
2023/03/14 11:54:49;;;;;;;20.50;3.90;;;;;;;7.88;56.79;100391.38;6106950;19;20086;-79
2023/03/14 11:57:00;;;;;;;13.15;3.20;;;;;;;7.48;56.23;100397.19;6106589;19;20017;-81
2023/03/14 11:59:08;;;;;;;11.00;3.08;;;;;;;7.24;55.18;100393.63;6104421;19;20010;-81
2023/03/14 12:01:16;;;;;;;5.10;1.63;;;;;;;7.25;52.08;100396.22;6104587;19;20097;-81
2023/03/14 12:03:39;;;;;;;9.55;1.85;;;;;;;7.58;55.64;100400.31;6102950;19;20022;-82
2023/03/14 12:06:05;;;;;;;10.13;3.33;;;;;;;7.41;53.42;100412.22;6095751;19;20014;-81
2023/03/14 12:08:49;;;;;;;8.05;2.55;;;;;;;7.17;54.06;100426.13;6098818;19;20011;-81
2023/03/14 12:10:56;;;;;;;;;;;;;;;7.15;55.24;100426.16;6097486;19;20030;-82
2023/03/14 12:13:03;;;;;;;8.48;1.98;;;;;;;7.16;55.53;100420.06;6100233;19;20548;-80
2023/03/14 12:15:24;;;;;;;13.95;2.22;;;;;;;6.92;52.44;100424.28;6101583;19;20011;-80
2023/03/14 12:17:38;;;;;;;7.55;2.33;;;;;;;7.05;52.81;100422.16;6097641;19;20089;-81
2023/03/14 12:19:43;;;;;;;7.47;2.05;;;;;;;7.27;52.78;100432.75;6100538;19;20113;-81
2023/03/14 12:21:55;;;;;;;8.25;1.98;;;;;;;7.48;55.07;100432.03;6100978;19;20010;-81
2023/03/14 12:24:03;;;;;;;12.32;2.22;;;;;;;7.59;54.11;100447.34;6101088;19;20011;-81
2023/03/14 12:26:25;;;;;;;9.00;2.10;;;;;;;7.17;51.05;100440.03;6101956;19;20014;-81
2023/03/14 12:28:35;;;;;;;8.35;1.88;;;;;;;7.13;53.07;100451.47;6099807;19;20651;-80
2023/03/14 12:30:42;;;;;;;5.50;2.13;;;;;;;7.28;52.70;100460.59;6100059;19;20670;-80
2023/03/14 12:33:28;;;;;;;10.27;2.38;;;;;;;7.22;52.06;100464.28;6100429;19;20322;-81
2023/03/14 12:35:38;;;;;;;14.13;2.08;;;;;;;7.28;53.69;100467.59;6097223;19;20085;-81
2023/03/14 12:37:47;;;;;;;12.95;2.95;;;;;;;7.26;53.66;100476.31;6097484;19;20011;-81
2023/03/14 12:40:21;;;;;;;12.60;2.63;;;;;;;7.07;50.73;100479.59;6100153;19;20647;-82
2023/03/14 12:42:41;;;;;;;8.90;2.83;;;;;;;6.97;51.46;100490.31;6095627;19;20094;-81
2023/03/14 12:44:51;;;;;;;9.40;2.25;;;;;;;7.18;51.04;100487.94;6078142;19;20018;-81
2023/03/14 12:46:59;;;;;;;12.68;2.88;;;;;;;7.19;52.99;100500.97;6097271;19;20097;-81
2023/03/14 12:49:10;;;;;;;7.22;2.10;;;;;;;7.27;54.13;100487.66;6099012;19;20011;-81
2023/03/14 12:51:20;;;;;;;13.55;2.65;;;;;;;7.50;55.20;100489.47;6097963;19;20648;-82
2023/03/14 12:54:00;;;;;;;10.73;2.60;;;;;;;7.07;54.76;100500.50;6098233;19;20085;-82
2023/03/14 12:56:37;;;;;;;6.45;2.28;;;;;;;6.72;53.78;100512.88;6088883;19;20040;-81
2023/03/14 12:58:47;;;;;;;5.65;1.40;;;;;;;6.96;50.39;100529.56;6098006;19;20102;-81
2023/03/14 13:00:58;;;;;;;6.93;2.08;;;;;;;6.95;46.72;100535.66;6100452;19;20043;-81
2023/03/14 13:03:15;;;;;;;9.18;2.15;;;;;;;6.82;48.02;100530.84;6075053;19;20019;-81
2023/03/14 13:05:22;;;;;;;13.55;2.05;;;;;;;6.85;47.92;100542.94;6099791;19;20018;-80
2023/03/14 13:08:17;;;;;;;;;;;;;;;;;;;;;
2023/03/14 13:10:26;;;;;;;21.27;3.05;;;;;;;6.91;46.43;100547.13;6093208;19;20494;-81
2023/03/14 13:12:50;;;;;;;6.78;2.10;;;;;;;6.86;47.70;100562.94;6078124;19;20078;-81
2023/03/14 13:14:56;;;;;;;5.30;2.17;;;;;;;6.94;47.76;100576.63;6096414;19;20015;-81
2023/03/14 13:17:04;;;;;;;11.93;2.53;;;;;;;6.98;47.40;100580.84;6096699;19;20013;-81
2023/03/14 13:19:32;;;;;;;8.50;1.90;;;;;;;6.77;48.32;100591.94;6093960;19;20221;-81
2023/03/14 13:21:38;;;;;;;11.20;2.80;;;;;;;6.64;49.75;100601.88;6096262;19;20031;-80
2023/03/14 13:23:55;;;;;;;7.13;1.92;;;;;;;6.62;49.30;100608.03;6093700;19;20014;-80
2023/03/14 13:26:04;;;;;;;7.88;1.80;;;;;;;6.72;49.40;100614.72;6094959;19;20633;-79
2023/03/14 13:28:16;;;;;;;8.73;2.20;;;;;;;6.56;49.98;100628.19;6072716;19;20533;-78
2023/03/14 13:30:26;;;;;;;5.85;1.50;;;;;;;6.60;50.06;100627.19;6092281;19;20110;-79
2023/03/14 13:32:36;;;;;;;8.38;2.47;;;;;;;6.62;49.71;100628.94;6096314;19;20015;-79
2023/03/14 13:34:42;;;;;;;10.75;2.08;;;;;;;6.51;49.67;100637.06;6100002;19;20218;-80
2023/03/14 13:36:48;;;;;;;7.82;1.85;;;;;;;6.54;49.70;100635.19;6094522;19;20256;-80
2023/03/14 13:39:04;;;;;;;13.50;2.85;;;;;;;6.29;48.41;100640.25;6100611;19;20098;-80
2023/03/14 13:41:10;;;;;;;9.43;2.05;;;;;;;6.35;47.94;100649.66;6097466;19;20024;-79
2023/03/14 13:43:23;;;;;;;9.75;2.50;;;;;;;6.52;48.54;100644.81;6098997;19;20019;-80
2023/03/14 13:45:30;;;;;;;;;;;;;;;6.47;48.75;100644.09;6103264;19;20014;-79
2023/03/14 13:47:35;;;;;;;6.40;1.80;;;;;;;6.60;49.58;100666.34;6108139;19;19923;-80
2023/03/14 13:49:41;;;;;;;7.22;1.92;;;;;;;6.53;49.17;100657.00;6108384;19;20010;-80
2023/03/14 13:51:46;;;;;;;17.30;2.92;;;;;;;6.57;49.69;100665.59;6108459;19;20028;-79
2023/03/14 13:53:53;;;;;;;11.25;2.58;;;;;;;6.43;48.61;100665.97;6110248;19;20018;-78
2023/03/14 13:55:59;;;;;;;7.57;2.28;;;;;;;6.51;48.46;100674.44;6106675;19;20014;-79
2023/03/14 13:58:03;;;;;;;10.68;2.50;;;;;;;6.42;48.33;100674.69;6110776;19;20042;-80
2023/03/14 14:00:21;;;;;;;16.10;2.83;;;;;;;6.45;48.51;100676.34;6106470;19;20014;-77
2023/03/14 14:02:28;;;;;;;14.07;2.60;;;;;;;6.53;49.44;100679.59;6086431;19;20467;-79
2023/03/14 14:04:38;;;;;;;7.30;2.10;;;;;;;6.52;49.59;100680.53;6107342;19;20088;-80
2023/03/14 14:06:49;;;;;;;11.27;2.95;;;;;;;6.44;50.97;100683.31;6108571;19;20772;-78
2023/03/14 14:08:57;;;;;;;20.92;2.42;;;;;;;6.47;49.43;100690.22;6093137;19;20387;-80
2023/03/14 14:11:05;;;;;;;11.23;2.45;;;;;;;6.28;46.74;100701.13;6104787;19;20010;-79
2023/03/14 14:13:13;;;;;;;13.30;2.33;;;;;;;6.25;46.38;100714.25;6106951;19;20439;-79
2023/03/14 14:15:25;;;;;;;12.20;2.42;;;;;;;6.30;47.03;100716.75;6108302;19;20031;-79
2023/03/14 14:17:36;;;;;;;10.35;2.80;;;;;;;6.40;47.32;100718.25;6106760;19;20499;-81
2023/03/14 14:19:48;;;;;;;12.43;2.25;;;;;;;6.42;48.42;100726.88;6107117;19;20498;-81
2023/03/14 14:21:56;;;;;;;9.30;1.88;;;;;;;6.33;49.43;100727.13;6108934;19;20014;-81
2023/03/14 14:24:04;;;;;;;13.32;2.95;;;;;;;6.24;50.40;100728.22;6107417;19;20658;-81
2023/03/14 14:26:19;;;;;;;12.27;2.58;;;;;;;6.17;50.21;100739.69;6080999;19;20255;-80
2023/03/14 14:28:29;;;;;;;12.77;2.75;;;;;;;6.27;51.10;100735.09;6108114;19;20712;-80
2023/03/14 14:30:40;;;;;;;12.13;2.42;;;;;;;6.34;51.06;100747.09;6113279;19;20010;-79
2023/03/14 14:33:12;;;;;;;15.05;2.97;;;;;;;6.13;50.74;100759.78;6113088;19;20006;-80
2023/03/14 14:35:26;;;;;;;4.18;1.77;;;;;;;6.27;51.77;100758.59;6117031;19;20014;-80
2023/03/14 14:37:33;;;;;;;14.80;3.33;;;;;;;6.23;51.76;100767.38;6115293;19;20051;-79
2023/03/14 14:39:38;;;;;;;10.27;2.42;;;;;;;6.27;51.38;100769.03;6118121;19;20015;-80
2023/03/14 14:41:46;;;;;;;15.73;2.58;;;;;;;6.19;51.45;100765.72;6114325;19;20011;-80
2023/03/14 14:43:54;;;;;;;9.32;3.30;;;;;;;6.28;50.06;100773.34;6116144;19;20013;-80
2023/03/14 14:46:10;;;;;;;11.27;2.30;;;;;;;6.40;51.68;100786.13;6092196;19;20132;-81
2023/03/14 14:48:16;;;;;;;11.57;2.33;;;;;;;6.48;51.73;100775.50;6111501;19;20025;-80
2023/03/14 14:50:31;;;;;;;13.52;2.85;;;;;;;6.61;51.65;100779.50;6107733;19;20022;-80
2023/03/14 14:52:45;;;;;;;6.13;2.10;;;;;;;6.62;51.17;100791.66;6108394;19;20010;-81
2023/03/14 14:54:56;;;;;;;8.48;2.08;;;;;;;6.56;49.12;100802.25;6107878;19;21033;-81
2023/03/14 14:57:07;;;;;;;8.05;2.70;;;;;;;6.42;49.91;100805.19;6103942;19;20014;-80
2023/03/14 14:59:24;;;;;;;14.00;3.08;;;;;;;6.40;50.20;100809.59;6103627;19;20030;-80
2023/03/14 15:01:39;;;;;;;13.15;2.88;;;;;;;6.35;48.62;100819.28;6103446;19;20517;-79
2023/03/14 15:03:52;;;;;;;11.77;2.42;;;;;;;6.23;47.43;100815.19;6104363;19;20027;-80
2023/03/14 15:06:00;;;;;;;8.40;2.08;;;;;;;6.35;48.48;100820.16;6081428;19;20015;-80
2023/03/14 15:08:10;;;;;;;9.38;1.90;;;;;;;6.47;47.99;100833.78;6100545;19;20025;-80
2023/03/14 15:10:18;;;;;;;6.85;1.67;;;;;;;6.45;47.51;100831.25;6097280;19;20010;-81
2023/03/14 15:12:24;;;;;;;9.32;1.83;;;;;;;6.38;47.86;100848.78;6101932;19;20494;-80
2023/03/14 15:14:29;;;;;;;12.63;2.75;;;;;;;6.53;49.34;100847.56;6102631;19;20035;-79
2023/03/14 15:16:37;;;;;;;14.00;2.67;;;;;;;6.50;49.06;100847.66;6102373;19;20090;-80
2023/03/14 15:18:51;;;;;;;8.60;1.90;;;;;;;6.41;49.26;100858.28;6099892;19;20010;-80
2023/03/14 15:21:00;;;;;;;11.25;2.25;;;;;;;6.34;49.57;100857.56;6102162;19;20051;-79
2023/03/14 15:23:05;;;;;;;5.50;1.73;;;;;;;6.44;49.16;100858.22;6100902;19;20018;-79
2023/03/14 15:25:12;;;;;;;7.28;1.58;;;;;;;6.26;48.40;100851.66;6099446;19;20006;-81
2023/03/14 15:27:42;;;;;;;6.45;1.75;;;;;;;6.08;48.50;100863.38;6101774;19;20625;-79